createdAt,value
2023-03-17T00:01:11.257Z,97.20
2023-03-17T00:03:44.320Z,97.30
2023-03-17T00:06:19.064Z,97.40
2023-03-17T00:08:46.417Z,97.90
2023-03-17T00:11:14.170Z,97.90
2023-03-17T00:13:41.682Z,97.90
2023-03-17T00:16:13.310Z,98.10
2023-03-17T00:18:40.081Z,98.40
2023-03-17T00:21:10.057Z,98.50
2023-03-17T00:23:36.871Z,98.70
2023-03-17T00:26:03.655Z,98.70
2023-03-17T00:28:35.250Z,99.00
2023-03-17T00:31:06.573Z,99.20
2023-03-17T00:33:37.109Z,99.40
2023-03-17T00:36:04.129Z,99.60
2023-03-17T00:38:33.410Z,99.70
2023-03-17T00:41:00.148Z,99.80
2023-03-17T00:43:29.230Z,99.90
2023-03-17T00:45:57.119Z,99.90
2023-03-17T00:48:24.195Z,99.90
2023-03-17T00:50:51.057Z,99.90
2023-03-17T00:53:20.459Z,99.90
2023-03-17T00:55:47.827Z,99.90
2023-03-17T00:58:24.024Z,99.90
2023-03-17T01:00:53.536Z,99.90
2023-03-17T01:03:20.580Z,99.90
2023-03-17T01:05:49.368Z,99.90
2023-03-17T01:08:16.782Z,99.90
2023-03-17T01:10:44.213Z,99.90
2023-03-17T01:13:11.874Z,99.90
2023-03-17T01:15:45.896Z,99.90
2023-03-17T01:18:13.663Z,99.90
2023-03-17T01:20:43.794Z,99.90
2023-03-17T01:23:11.262Z,99.90
2023-03-17T01:25:41.393Z,99.90
2023-03-17T01:28:12.530Z,99.90
2023-03-17T01:30:40.424Z,99.90
2023-03-17T01:33:08.508Z,99.90
2023-03-17T01:35:36.746Z,99.90
2023-03-17T01:38:03.954Z,99.90
2023-03-17T01:40:33.252Z,99.90
2023-03-17T01:43:06.001Z,99.90
2023-03-17T01:45:57.531Z,99.90
2023-03-17T01:48:29.062Z,99.90
2023-03-17T01:50:56.643Z,99.90
2023-03-17T01:53:23.753Z,99.90
2023-03-17T01:55:51.345Z,99.90
2023-03-17T01:58:24.172Z,99.90
2023-03-17T02:00:53.456Z,99.90
2023-03-17T02:03:20.326Z,99.90
2023-03-17T02:05:48.526Z,99.90
2023-03-17T02:08:16.417Z,99.90
2023-03-17T02:10:44.728Z,99.90
2023-03-17T02:13:13.719Z,99.90
2023-03-17T02:15:40.575Z,99.90
2023-03-17T02:18:07.923Z,99.90
2023-03-17T02:20:36.965Z,99.90
2023-03-17T02:23:04.663Z,99.90
2023-03-17T02:25:34.405Z,99.90
2023-03-17T02:28:08.349Z,99.90
2023-03-17T02:30:38.094Z,99.90
2023-03-17T02:33:04.895Z,99.90
2023-03-17T02:35:32.007Z,99.90
2023-03-17T02:38:01.524Z,99.90
2023-03-17T02:40:32.567Z,99.90
2023-03-17T02:42:59.606Z,99.90
2023-03-17T02:45:28.518Z,99.90
2023-03-17T02:47:55.932Z,99.90
2023-03-17T02:50:24.196Z,99.90
2023-03-17T02:52:51.380Z,99.90
2023-03-17T02:55:18.157Z,99.90
2023-03-17T02:57:44.913Z,99.90
2023-03-17T03:00:17.145Z,99.90
2023-03-17T03:02:46.398Z,99.90
2023-03-17T03:05:13.748Z,99.90
2023-03-17T03:07:40.484Z,99.90
2023-03-17T03:10:07.421Z,99.90
2023-03-17T03:12:35.159Z,99.90
2023-03-17T03:15:02.012Z,99.90
2023-03-17T03:17:31.146Z,99.90
2023-03-17T03:19:57.962Z,99.90
2023-03-17T03:22:27.252Z,99.90
2023-03-17T03:24:53.999Z,99.90
2023-03-17T03:27:20.748Z,99.90
2023-03-17T03:29:54.995Z,99.90
2023-03-17T03:32:23.910Z,99.90
2023-03-17T03:34:51.048Z,99.90
2023-03-17T03:37:17.789Z,99.90
2023-03-17T03:39:44.720Z,99.90
2023-03-17T03:42:11.601Z,99.90
2023-03-17T03:44:38.309Z,99.90
2023-03-17T03:47:05.182Z,99.90
2023-03-17T03:49:31.883Z,99.90
2023-03-17T03:52:00.948Z,99.90
2023-03-17T03:54:27.664Z,99.90
2023-03-17T03:56:54.393Z,99.90
2023-03-17T03:59:21.529Z,99.90
2023-03-17T04:01:48.317Z,99.90
2023-03-17T04:04:15.429Z,99.90
2023-03-17T04:06:42.149Z,99.90
2023-03-17T04:09:13.509Z,99.90
2023-03-17T04:11:40.237Z,99.90
2023-03-17T04:14:09.243Z,99.90
2023-03-17T04:16:36.070Z,99.90
2023-03-17T04:19:03.083Z,99.90
2023-03-17T04:21:29.813Z,99.90
2023-03-17T04:23:58.794Z,99.90
2023-03-17T04:26:25.653Z,99.90
2023-03-17T04:28:54.724Z,99.90
2023-03-17T04:31:21.986Z,99.90
2023-03-17T04:33:49.275Z,99.90
2023-03-17T04:36:19.950Z,99.90
2023-03-17T04:38:49.494Z,99.90
2023-03-17T04:41:16.286Z,99.90
2023-03-17T04:43:43.073Z,99.90
2023-03-17T04:46:12.731Z,99.90
2023-03-17T04:48:39.647Z,99.90
2023-03-17T04:51:06.381Z,99.90
2023-03-17T04:53:33.157Z,99.90
2023-03-17T04:55:59.921Z,99.90
2023-03-17T04:58:30.808Z,99.90
2023-03-17T05:01:01.460Z,99.90
2023-03-17T05:03:30.040Z,99.90
2023-03-17T05:05:59.605Z,99.90
2023-03-17T05:08:28.241Z,99.90
2023-03-17T05:10:55.936Z,99.90
2023-03-17T05:13:25.563Z,99.90
2023-03-17T05:15:53.222Z,99.90
2023-03-17T05:18:20.920Z,99.90
2023-03-17T05:20:47.754Z,99.90
2023-03-17T05:23:16.870Z,99.90
2023-03-17T05:25:44.017Z,99.90
2023-03-17T05:28:10.754Z,99.90
2023-03-17T05:30:40.441Z,99.90
2023-03-17T05:33:07.634Z,99.90
2023-03-17T05:35:34.689Z,99.90
2023-03-17T05:38:01.611Z,99.90
2023-03-17T05:40:33.259Z,99.90
2023-03-17T05:43:00.774Z,99.90
2023-03-17T05:45:30.517Z,99.90
2023-03-17T05:47:57.728Z,99.90
2023-03-17T05:50:24.839Z,99.90
2023-03-17T05:52:52.204Z,99.90
2023-03-17T05:55:19.595Z,99.90
2023-03-17T05:57:48.802Z,99.90
2023-03-17T06:00:16.220Z,99.90
2023-03-17T06:02:43.092Z,99.90
2023-03-17T06:05:09.969Z,99.90
2023-03-17T06:07:50.805Z,99.90
2023-03-17T06:10:48.321Z,99.90
2023-03-17T06:13:15.484Z,99.90
2023-03-17T06:15:44.832Z,99.90
2023-03-17T06:18:11.572Z,99.90
2023-03-17T06:20:38.471Z,99.90
2023-03-17T06:23:06.781Z,99.90
2023-03-17T06:25:34.705Z,99.90
2023-03-17T06:28:03.685Z,99.90
2023-03-17T06:30:34.626Z,99.90
2023-03-17T06:33:04.399Z,99.90
2023-03-17T06:35:31.712Z,99.90
2023-03-17T06:38:01.139Z,99.90
2023-03-17T06:40:27.989Z,99.90
2023-03-17T06:42:54.783Z,99.90
2023-03-17T06:45:21.614Z,99.90
2023-03-17T06:47:48.328Z,99.90
2023-03-17T06:50:15.359Z,99.90
2023-03-17T06:52:42.063Z,99.90
2023-03-17T06:55:09.079Z,99.90
2023-03-17T06:57:38.153Z,99.90
2023-03-17T07:00:08.449Z,99.90
2023-03-17T07:02:40.236Z,99.90
2023-03-17T07:05:08.105Z,99.90
2023-03-17T07:07:35.692Z,99.90
2023-03-17T07:10:02.542Z,99.90
2023-03-17T07:12:32.914Z,99.90
2023-03-17T07:14:59.932Z,99.90
2023-03-17T07:17:26.719Z,99.90
2023-03-17T07:19:53.516Z,99.90
2023-03-17T07:22:20.454Z,99.90
2023-03-17T07:24:49.027Z,99.90
2023-03-17T07:27:16.303Z,99.90
2023-03-17T07:29:43.145Z,99.90
2023-03-17T07:32:10.305Z,99.90
2023-03-17T07:34:37.413Z,99.90
2023-03-17T07:37:05.180Z,99.90
2023-03-17T07:39:31.939Z,99.90
2023-03-17T07:41:58.679Z,99.90
2023-03-17T07:44:25.806Z,99.90
2023-03-17T07:46:52.586Z,99.90
2023-03-17T07:49:34.096Z,99.90
2023-03-17T07:52:09.562Z,99.90
2023-03-17T07:54:37.495Z,99.90
2023-03-17T07:57:05.527Z,99.90
2023-03-17T07:59:33.053Z,99.90
2023-03-17T08:02:01.341Z,99.70
2023-03-17T08:04:28.836Z,98.50
2023-03-17T08:07:01.465Z,97.50
2023-03-17T08:09:28.381Z,96.50
2023-03-17T08:11:57.600Z,95.90
2023-03-17T08:14:24.610Z,96.10
2023-03-17T08:16:54.211Z,95.90
2023-03-17T08:19:22.088Z,95.40
2023-03-17T08:21:49.035Z,95.60
2023-03-17T08:24:15.888Z,96.00
2023-03-17T08:26:43.358Z,96.40
2023-03-17T08:29:10.521Z,96.00
2023-03-17T08:31:37.426Z,95.80
2023-03-17T08:34:10.029Z,95.30
2023-03-17T08:36:38.950Z,94.90
2023-03-17T08:39:05.812Z,93.80
2023-03-17T08:41:32.747Z,93.50
2023-03-17T08:44:00.108Z,93.90
2023-03-17T08:46:30.283Z,94.10
2023-03-17T08:48:59.011Z,94.70
2023-03-17T08:51:28.883Z,94.90
2023-03-17T08:53:56.530Z,95.50
2023-03-17T08:56:23.515Z,94.90
2023-03-17T08:58:51.757Z,95.00
2023-03-17T09:01:20.847Z,94.50
2023-03-17T09:03:52.813Z,94.30
2023-03-17T09:06:25.488Z,94.70
2023-03-17T09:08:55.487Z,94.50
2023-03-17T09:11:28.020Z,94.60
2023-03-17T09:13:55.523Z,94.20
2023-03-17T09:16:25.427Z,94.00
2023-03-17T09:18:57.578Z,94.00
2023-03-17T09:21:24.972Z,94.00
2023-03-17T09:23:51.946Z,93.20
2023-03-17T09:26:20.925Z,92.70
2023-03-17T09:28:47.800Z,91.30
2023-03-17T09:31:14.740Z,91.20
2023-03-17T09:33:42.235Z,90.20
2023-03-17T09:36:12.079Z,89.50
2023-03-17T09:38:39.378Z,87.50
2023-03-17T09:41:23.546Z,84.60
2023-03-17T09:44:11.108Z,83.00
2023-03-17T09:46:57.563Z,80.50
2023-03-17T09:49:49.313Z,80.50
2023-03-17T09:52:18.731Z,77.60
2023-03-17T09:54:49.455Z,73.90
2023-03-17T09:57:26.979Z,74.00
2023-03-17T10:00:14.514Z,71.90
2023-03-17T10:02:44.937Z,71.50
2023-03-17T10:05:24.346Z,71.30
2023-03-17T10:08:04.410Z,70.00
2023-03-17T10:11:02.743Z,69.90
2023-03-17T10:13:58.094Z,70.40
2023-03-17T10:16:50.939Z,68.80
2023-03-17T10:19:33.001Z,68.30
2023-03-17T10:22:13.244Z,68.60
2023-03-17T10:24:45.942Z,68.40
2023-03-17T10:27:19.508Z,70.00
2023-03-17T10:34:30.491Z,71.80
2023-03-17T10:37:07.218Z,73.90
2023-03-17T10:39:51.114Z,74.70
2023-03-17T10:42:29.529Z,75.00
2023-03-17T10:44:58.202Z,73.00
2023-03-17T10:47:34.240Z,73.40
2023-03-17T10:50:23.040Z,74.30
2023-03-17T10:53:18.372Z,76.30
2023-03-17T10:55:52.787Z,74.50
2023-03-17T10:58:47.606Z,76.20
2023-03-17T11:01:21.160Z,75.30
2023-03-17T11:03:51.495Z,73.30
2023-03-17T11:06:23.132Z,72.80
2023-03-17T11:08:55.456Z,72.60
2023-03-17T11:11:26.297Z,74.30
2023-03-17T11:14:03.156Z,73.40
2023-03-17T11:16:37.259Z,75.20
2023-03-17T11:19:12.222Z,74.60
2023-03-17T11:21:57.110Z,75.10
2023-03-17T11:24:33.801Z,73.80
2023-03-17T11:27:11.021Z,73.90
2023-03-17T11:30:20.066Z,75.10
2023-03-17T11:33:00.028Z,76.10
2023-03-17T11:35:38.336Z,76.10
2023-03-17T11:38:37.547Z,76.00
2023-03-17T11:41:09.046Z,76.80
2023-03-17T11:43:48.126Z,75.60
2023-03-17T11:46:30.153Z,76.70
2023-03-17T11:49:18.963Z,75.60
2023-03-17T11:52:03.606Z,77.10
2023-03-17T11:54:54.357Z,77.70
2023-03-17T11:57:35.290Z,78.30
2023-03-17T12:00:17.085Z,76.80
2023-03-17T12:02:49.254Z,78.60
2023-03-17T12:05:25.242Z,77.60
2023-03-17T12:08:30.714Z,78.80
2023-03-17T12:11:02.312Z,78.70
2023-03-17T12:13:40.145Z,77.90
2023-03-17T12:16:15.653Z,80.20
2023-03-17T12:19:01.876Z,78.90
2023-03-17T12:21:55.634Z,77.40
2023-03-17T12:25:04.731Z,79.40
2023-03-17T12:27:43.077Z,79.30
2023-03-17T12:30:45.453Z,78.20
2023-03-17T12:33:18.265Z,78.70
2023-03-17T12:35:47.544Z,78.30
2023-03-17T12:38:31.427Z,78.60
2023-03-17T12:41:36.351Z,78.90
2023-03-17T12:44:31.186Z,77.90
2023-03-17T12:47:06.859Z,80.00
2023-03-17T12:49:39.701Z,78.40
2023-03-17T12:52:24.497Z,79.10
2023-03-17T12:54:54.318Z,78.40
2023-03-17T12:57:27.518Z,78.90
2023-03-17T13:00:05.551Z,78.00
2023-03-17T13:02:39.757Z,77.90
2023-03-17T13:05:19.581Z,78.30
2023-03-17T13:07:59.495Z,78.50
2023-03-17T13:10:35.695Z,78.50
2023-03-17T13:13:08.981Z,77.00
2023-03-17T13:15:39.618Z,77.00
2023-03-17T13:18:15.346Z,77.40
2023-03-17T13:20:42.148Z,78.10
2023-03-17T13:23:12.107Z,78.10
2023-03-17T13:25:42.939Z,78.30
2023-03-17T13:28:13.018Z,77.40
2023-03-17T13:30:39.855Z,78.80
2023-03-17T13:33:10.001Z,79.30
2023-03-17T13:35:43.073Z,78.60
2023-03-17T13:38:37.247Z,79.20
2023-03-17T13:41:50.678Z,78.80
2023-03-17T13:44:35.520Z,78.20
2023-03-17T13:47:28.531Z,79.60
2023-03-17T13:50:07.936Z,78.80
2023-03-17T13:52:42.596Z,79.20
2023-03-17T13:55:18.795Z,78.00
2023-03-17T13:58:11.436Z,77.40
2023-03-17T14:00:45.513Z,77.40
2023-03-17T14:03:29.925Z,77.20
2023-03-17T14:05:58.743Z,77.00
2023-03-17T14:08:51.966Z,76.20
2023-03-17T14:11:40.995Z,76.10
2023-03-17T14:14:26.092Z,76.00
2023-03-17T14:17:20.846Z,77.50
2023-03-17T14:20:22.661Z,76.20
2023-03-17T14:22:56.159Z,75.60
2023-03-17T14:25:34.559Z,75.80
2023-03-17T14:28:05.870Z,76.10
2023-03-17T14:30:34.773Z,75.90
2023-03-17T14:33:27.147Z,76.00
2023-03-17T14:35:57.910Z,76.40
2023-03-17T14:38:27.970Z,77.10
2023-03-17T14:41:06.213Z,78.00
2023-03-17T14:43:35.624Z,77.50
2023-03-17T14:46:07.584Z,77.10
2023-03-17T14:48:37.365Z,78.10
2023-03-17T14:51:08.681Z,76.50
2023-03-17T14:53:39.458Z,77.60
2023-03-17T14:56:09.420Z,77.60
2023-03-17T14:58:42.640Z,77.10
2023-03-17T15:01:15.612Z,78.50
2023-03-17T15:03:57.410Z,79.90
2023-03-17T15:06:29.946Z,78.40
2023-03-17T15:09:06.070Z,78.50
2023-03-17T15:11:43.103Z,79.50
2023-03-17T15:14:16.477Z,79.40
2023-03-17T15:16:57.215Z,79.10
2023-03-17T15:19:48.305Z,79.00
2023-03-17T15:22:32.652Z,79.90
2023-03-17T15:25:18.562Z,78.50
2023-03-17T15:27:46.444Z,79.00
2023-03-17T15:30:13.993Z,78.50
2023-03-17T15:32:43.127Z,79.60
2023-03-17T15:35:16.332Z,81.30
2023-03-17T15:37:43.327Z,82.40
2023-03-17T15:40:10.915Z,81.60
2023-03-17T15:42:39.781Z,80.90
2023-03-17T15:45:07.795Z,81.10
2023-03-17T15:47:42.973Z,82.80
2023-03-17T15:50:32.581Z,82.50
2023-03-17T15:52:59.584Z,81.70
2023-03-17T15:55:30.913Z,82.10
2023-03-17T15:58:00.382Z,82.80
2023-03-17T16:00:29.575Z,82.60
2023-03-17T16:03:08.826Z,82.10
2023-03-17T16:05:36.504Z,82.60
2023-03-17T16:08:03.464Z,82.00
2023-03-17T16:10:32.931Z,82.00
2023-03-17T16:13:00.291Z,81.50
2023-03-17T16:15:32.123Z,81.50
2023-03-17T16:18:02.242Z,81.90
2023-03-17T16:20:41.542Z,81.50
2023-03-17T16:23:18.270Z,82.00
2023-03-17T16:25:51.662Z,82.60
2023-03-17T16:28:23.006Z,82.30
2023-03-17T16:30:50.680Z,82.50
2023-03-17T16:33:23.467Z,82.90
2023-03-17T16:35:55.802Z,82.70
2023-03-17T16:38:27.576Z,81.40
2023-03-17T16:40:59.211Z,82.70
2023-03-17T16:43:27.638Z,82.40
2023-03-17T16:45:57.415Z,82.30
2023-03-17T16:48:25.413Z,83.10
2023-03-17T16:50:57.694Z,82.60
2023-03-17T16:53:27.690Z,82.30
2023-03-17T16:55:55.720Z,82.50
2023-03-17T16:58:36.954Z,82.30
2023-03-17T17:01:11.300Z,82.00
2023-03-17T17:03:38.237Z,82.70
2023-03-17T17:06:08.686Z,82.40
2023-03-17T17:08:35.887Z,82.50
2023-03-17T17:11:03.101Z,82.20
2023-03-17T17:13:29.975Z,82.30
2023-03-17T17:15:57.056Z,82.10
2023-03-17T17:18:27.136Z,82.10
2023-03-17T17:20:55.495Z,82.00
2023-03-17T17:23:27.221Z,83.00
2023-03-17T17:25:57.327Z,82.40
2023-03-17T17:28:25.779Z,82.30
2023-03-17T17:30:53.180Z,82.50
2023-03-17T17:33:21.161Z,82.60
2023-03-17T17:35:49.044Z,82.60
2023-03-17T17:38:19.089Z,82.50
2023-03-17T17:40:48.925Z,82.90
2023-03-17T17:43:18.131Z,83.10
2023-03-17T17:45:48.536Z,83.30
2023-03-17T17:48:22.602Z,84.00
2023-03-17T17:50:51.241Z,83.50
2023-03-17T17:53:18.691Z,83.60
2023-03-17T17:55:47.589Z,84.00
2023-03-17T17:58:22.456Z,84.10
2023-03-17T18:00:51.266Z,84.50
2023-03-17T18:03:22.265Z,84.70
2023-03-17T18:05:49.144Z,84.60
2023-03-17T18:08:16.206Z,84.60
2023-03-17T18:10:43.133Z,85.20
2023-03-17T18:13:10.010Z,85.30
2023-03-17T18:15:38.239Z,85.10
2023-03-17T18:18:05.755Z,85.20
2023-03-17T18:20:33.238Z,85.80
2023-03-17T18:23:00.661Z,85.20
2023-03-17T18:25:28.076Z,86.00
2023-03-17T18:27:56.324Z,86.10
2023-03-17T18:30:27.108Z,85.50
2023-03-17T18:33:00.553Z,85.60
2023-03-17T18:35:29.445Z,85.90
2023-03-17T18:37:59.622Z,86.20
2023-03-17T18:40:29.166Z,86.00
2023-03-17T18:42:56.197Z,86.60
2023-03-17T18:45:23.728Z,86.60
2023-03-17T18:47:50.720Z,86.90
2023-03-17T18:50:19.537Z,86.90
2023-03-17T18:52:46.498Z,87.00
2023-03-17T18:55:15.257Z,87.10
2023-03-17T18:57:44.773Z,87.10
2023-03-17T19:00:14.522Z,87.50
2023-03-17T19:02:43.748Z,87.60
2023-03-17T19:05:11.705Z,87.60
2023-03-17T19:07:41.817Z,87.70
2023-03-17T19:10:10.493Z,87.90
2023-03-17T19:12:38.027Z,88.30
2023-03-17T19:15:06.904Z,88.20
2023-03-17T19:17:34.202Z,88.40
2023-03-17T19:20:01.271Z,88.30
2023-03-17T19:22:28.164Z,88.60
2023-03-17T19:24:57.627Z,88.60
2023-03-17T19:27:24.741Z,88.70
2023-03-17T19:29:54.179Z,89.20
2023-03-17T19:32:21.089Z,89.20
2023-03-17T19:34:50.082Z,89.20
2023-03-17T19:37:17.105Z,89.20
2023-03-17T19:39:44.779Z,88.90
2023-03-17T19:42:12.691Z,89.10
2023-03-17T19:44:39.969Z,89.30
2023-03-17T19:47:08.316Z,89.20
2023-03-17T19:49:39.423Z,89.40
2023-03-17T19:52:07.685Z,89.90
2023-03-17T19:54:45.944Z,89.90
2023-03-17T19:57:16.875Z,90.00
2023-03-17T19:59:43.719Z,90.10
2023-03-17T20:02:14.380Z,90.10
2023-03-17T20:04:41.479Z,90.30
2023-03-17T20:07:08.549Z,90.50
2023-03-17T20:09:39.149Z,90.50
2023-03-17T20:12:06.629Z,90.60
2023-03-17T20:14:34.450Z,90.60
2023-03-17T20:17:01.371Z,90.60
2023-03-17T20:19:29.157Z,90.70
2023-03-17T20:21:58.346Z,90.90
2023-03-17T20:24:27.071Z,90.90
2023-03-17T20:26:56.794Z,91.00
2023-03-17T20:29:28.395Z,91.00
2023-03-17T20:31:56.316Z,91.20
2023-03-17T20:34:23.620Z,91.30
2023-03-17T20:36:51.873Z,91.40
2023-03-17T20:39:21.765Z,91.60
2023-03-17T20:41:50.859Z,91.60
2023-03-17T20:44:18.408Z,91.60
2023-03-17T20:46:46.005Z,91.60
2023-03-17T20:49:13.743Z,91.80
2023-03-17T20:51:43.756Z,91.80
2023-03-17T20:54:10.999Z,91.90
2023-03-17T20:56:37.787Z,91.90
2023-03-17T20:59:05.571Z,91.90
2023-03-17T21:01:36.774Z,91.90
2023-03-17T21:04:06.452Z,92.00
2023-03-17T21:06:34.329Z,92.00
2023-03-17T21:09:04.576Z,92.30
2023-03-17T21:11:33.927Z,92.20
2023-03-17T21:14:03.383Z,92.30
2023-03-17T21:16:30.330Z,92.20
2023-03-17T21:18:57.303Z,92.40
2023-03-17T21:21:25.124Z,92.40
2023-03-17T21:23:51.939Z,92.40
2023-03-17T21:26:19.493Z,92.60
2023-03-17T21:28:46.670Z,92.70
2023-03-17T21:31:14.840Z,92.70
2023-03-17T21:33:42.102Z,92.70
2023-03-17T21:36:11.170Z,92.80
2023-03-17T21:38:38.005Z,93.00
2023-03-17T21:41:33.318Z,92.90
2023-03-17T21:44:03.271Z,92.90
2023-03-17T21:46:31.580Z,93.10
2023-03-17T21:48:58.594Z,93.20
2023-03-17T21:51:25.709Z,93.20
2023-03-17T21:53:55.051Z,93.20
2023-03-17T21:56:24.071Z,93.40
2023-03-17T21:58:53.597Z,93.30
2023-03-17T22:01:23.272Z,93.40
2023-03-17T22:03:53.625Z,93.40
2023-03-17T22:06:21.059Z,93.50
2023-03-17T22:08:48.736Z,93.60
2023-03-17T22:11:18.838Z,93.60
2023-03-17T22:13:48.779Z,93.70
2023-03-17T22:16:16.262Z,93.80
2023-03-17T22:18:43.064Z,93.80
2023-03-17T22:21:10.155Z,93.80
2023-03-17T22:23:41.498Z,93.90
2023-03-17T22:26:10.758Z,93.90
2023-03-17T22:28:40.737Z,94.00
2023-03-17T22:31:15.480Z,94.30
2023-03-17T22:33:42.797Z,94.70
2023-03-17T22:36:14.535Z,94.60
2023-03-17T22:38:41.546Z,94.40
2023-03-17T22:41:15.860Z,94.30
2023-03-17T22:43:45.530Z,94.30
2023-03-17T22:46:15.825Z,94.50
2023-03-17T22:48:42.797Z,94.60
2023-03-17T22:51:12.908Z,94.70
2023-03-17T22:53:40.063Z,94.80
2023-03-17T22:56:07.628Z,94.80
2023-03-17T22:58:34.940Z,95.00
2023-03-17T23:01:02.624Z,95.00
2023-03-17T23:03:29.980Z,95.20
2023-03-17T23:05:58.386Z,95.20
2023-03-17T23:08:26.114Z,95.30
2023-03-17T23:10:53.967Z,95.20
2023-03-17T23:13:21.022Z,95.50
2023-03-17T23:15:48.461Z,95.80
2023-03-17T23:18:15.429Z,95.50
2023-03-17T23:20:45.034Z,95.60
2023-03-17T23:23:12.347Z,95.70
2023-03-17T23:25:39.142Z,95.60
2023-03-17T23:28:06.837Z,95.80
2023-03-17T23:30:35.431Z,95.80
2023-03-17T23:33:06.096Z,95.70
2023-03-17T23:35:35.701Z,95.80
2023-03-17T23:38:03.962Z,95.90
2023-03-17T23:40:31.899Z,95.90
2023-03-17T23:42:58.863Z,95.90
2023-03-17T23:45:25.876Z,96.00
2023-03-17T23:47:52.895Z,96.10
2023-03-17T23:50:20.994Z,96.00
2023-03-17T23:52:48.116Z,96.00
2023-03-17T23:55:16.680Z,96.10
2023-03-17T23:57:46.473Z,96.20
